Sault Ste Marie Airport
CYAM : now visible

Airfield :











YOU CAN JOIN US ON...

 
LOGIN :

Register | Disclaimer

   EN    FR    IT 

 









Legend :    VFR   Marginal VFR   IFR   Intensive IFR   Very Intensive IFR
Visi :
Ceiling :
>= 8 km
>= 3000ft
5 to 8 km
1000 to 3000 ft
1500m to 5 km
500 to 1000 ft
800 to 1500m
200 to 500 ft
< 800m
< 200 ft
Symbols :   Thunderstorms  Fog  Heavy snow  Heavy precipitations  Wind > 20 kt






- Airport Elevation : 630 ft
- IATA code : YAM


CYAM - Sault Ste Marie

CURRENT METAR :
  • 080800Z 09005KT 070V130 20SM -SN OVC017 M08/M11 A3044 RMK SC8 SLP322

EXPIRED METARs :
  • 080700Z 07008KT 20SM -SN OVC017 M08/M11 A3042 RMK SC8 SLP314
  • 080600Z 04008KT 20SM -SN BKN017 M07/M10 A3041 RMK SC7 SLP310

TAF TAF CYAM
Valid from the 08 at 08:00 until the 08 at 20:00 UTC


080740Z 0808/0820 03008KT P6SM -SN BKN015
TEMPO 0808/0820 SCT015 RMK NXT FCST BY 081400Z
CZYZ FIR / North America



MET'MAP, your aeronautical weather chart ! - Copyright ORBIFLY December 2007 - Disclaimer

ORBIFLY MET'MAP TEAM :

Programming & Development : Alexandra Zaïnal
Original concept : Baudouin d'Aumeries
Technical & hardware support : Manuel Goepfert
Assistance : Marc-Olivier Méhu




SOURCES & CREDITS :

   NOAA       Earth
Advisory